Taos Ski Valley, NM

10:24 PM MDT on April 01, 2015 (GMT -0600)
Taos Municipal | | Change Station
CLOSE
Current Station
Airport
Location: Taos,
Elevation: 7090 ft
Nearby Weather Stations
Active Advisory: Fire Weather Warning

Elev 7090 ft 36.46 °N, 105.67 °W | Updated 9 minutes ago

Clear
Clear
43 °F
Feels Like 39 °F
N
7
Wind Variable Wind from ESE

Today
High -- | Low -- °F
--% Chance of Precip.
Yesterday
High -- | Low -- °F
Precip. -- in
6:48 AM 7:24 PM
Waxing Gibbous, 95% visible
Pressure 29.97 in
Visibility 10.0 miles
Clouds Clear
Windchill 39 °F
Dew Point 18 °F
Humidity 36%
Rainfall 0.00 in
Snow Depth Not available.
UV 0 out of 12
Pollen 11.70 out of 12
Air Quality Not available.
Flu Activity Not available.
METAR KSKX 020415Z AUTO 11006KT 10SM CLR 06/M08 A2997 RMK AO1

More Conditions Fewer Conditions

Pressure 29.97 in
Visibility 10.0 miles
Clouds Clear
Windchill 39 °F
Dew Point 18 °F
Humidity 36%
Rainfall 0.00 in
Snow Depth Not available.
UV 0 out of 12
Pollen 11.70 out of 12
Air Quality Not available.
Flu Activity Not available.
METAR KSKX 020415Z AUTO 11006KT 10SM CLR 06/M08 A2997 RMK AO1

More Conditions Fewer Conditions

10-Day Weather Forecast

Almanac

Astronomy

Apr. 01, 2015 Rise Set
Actual Time
Civil Twilight
Nautical Twilight
Astronomical Twilight
Moon
Length of Visible Light
Length of Day
Tomorrow will be .
, % of the Moon is Illuminated

Today's Extremes

State Highs State Lows

Community

WunderPhotos

Upload Photos

1,810,197 photos uploaded!

WunderBlogs® & News

Nearby

Air Quality

  Air Quality AQ Index Pollutant
Not available.

Snow Depth

Station Depth Elevation

Earthquake Activity

City Distance Mag. Time & Date
Minimum magnitude displayed is 2.5.

Coastal Water Temperatures

Place Temperature

Stations

Nearby Weather Stations

Station Location Temp. Windchill Dew Point Humidity Wind Precip. Elev Updated Type
                   
Fire Weather Warning
Statement as of 6:58 PM MDT on April 01, 2015

... Red flag warning remains in effect from 11 am to 9 PM MDT
Thursday...

A red flag warning remains in effect from 11 am to 9 PM MDT
Thursday.

* Area and timing... the north central mountains and west Central
Highlands below significant snow pack as well as the Rio Grande
Valley and northwest plateau late Thursday morning through early
evening.

* 20 foot winds... west 20 to 35 mph with gusts to 45 mph.

* Relative humidity... varying from 5 to 8 percent at the lower
elevations to 8 to 15 percent west Central Highlands and north
central mountains.

* Impacts... any fires that develop will likely spread rapidly.
Outdoor burning is not recommended.

Precautionary/preparedness actions...

Please advise the appropriate officials or fire crews in the
field of this red flag warning.